Time;durP1;ratioP1;P1;durP2;ratioP2;P2;SDS_P1;SDS_P2;PMS_P1;PMS_P2;Temp;Humidity;BMP_temperature;BMP_pressure;BME280_temperature;BME280_humidity;BME280_pressure;Samples;Min_cycle;Max_cycle;Signal;HPM_P1;HPM_P2
2023/04/03 00:01:14;;;;;;;0.00;0.00;;;4.00;75.10;;;;;;4971135;28;20042;-65
2023/04/03 00:03:43;;;;;;;0.00;0.00;;;4.00;75.10;;;;;;4971290;28;20490;-66
2023/04/03 00:06:11;;;;;;;0.00;0.00;;;4.00;75.10;;;;;;4971651;28;20056;-66
2023/04/03 00:08:37;;;;;;;0.00;0.00;;;4.00;75.00;;;;;;4971048;28;20046;-65
2023/04/03 00:11:03;;;;;;;0.00;0.00;;;4.00;75.00;;;;;;4971652;28;20085;-66
2023/04/03 00:13:29;;;;;;;0.00;0.00;;;4.00;75.10;;;;;;4971063;28;20570;-66
2023/04/03 00:15:55;;;;;;;0.00;0.00;;;4.00;75.10;;;;;;4971336;28;20053;-66
2023/04/03 00:18:21;;;;;;;0.00;0.00;;;4.00;75.00;;;;;;4966666;28;20392;-65
2023/04/03 00:20:47;;;;;;;0.00;0.00;;;3.90;75.00;;;;;;4964827;28;20035;-66
2023/04/03 00:23:13;;;;;;;0.00;0.00;;;3.90;74.90;;;;;;4969600;28;20031;-65
2023/04/03 00:25:39;;;;;;;0.00;0.00;;;3.90;74.80;;;;;;4971188;28;20042;-66
2023/04/03 00:28:05;;;;;;;0.03;0.03;;;3.90;74.80;;;;;;4970905;28;20046;-67
2023/04/03 00:30:31;;;;;;;0.00;0.00;;;3.80;74.70;;;;;;4970363;28;20085;-66
2023/04/03 00:32:57;;;;;;;0.00;0.00;;;3.80;74.60;;;;;;4971124;28;20046;-66
2023/04/03 00:35:24;;;;;;;0.00;0.00;;;3.70;74.60;;;;;;4970296;28;20043;-66
2023/04/03 00:37:54;;;;;;;0.10;0.10;;;3.70;74.60;;;;;;4970045;28;20054;-66
2023/04/03 00:40:20;;;;;;;0.00;0.00;;;3.80;74.60;;;;;;4970604;28;20054;-66
2023/04/03 00:42:47;;;;;;;0.00;0.00;;;3.70;74.60;;;;;;4970501;28;20385;-66
2023/04/03 00:45:23;;;;;;;0.00;0.00;;;3.70;74.50;;;;;;4970372;28;20074;-66
2023/04/03 00:47:48;;;;;;;0.00;0.00;;;3.70;74.50;;;;;;4969838;28;20051;-65
2023/04/03 00:50:14;;;;;;;0.10;0.10;;;3.70;74.50;;;;;;4968830;28;20503;-65
2023/04/03 00:52:40;;;;;;;0.00;0.00;;;3.70;74.50;;;;;;4968592;28;20521;-65
2023/04/03 00:55:08;;;;;;;0.00;0.00;;;3.60;74.50;;;;;;4970039;28;20428;-66
2023/04/03 00:57:34;;;;;;;0.00;0.00;;;3.70;74.50;;;;;;4970334;28;20113;-66
2023/04/03 01:00:06;;;;;;;0.00;0.00;;;3.70;74.40;;;;;;4970971;28;20070;-66
2023/04/03 01:02:32;;;;;;;;;;;3.70;74.50;;;;;;4968974;28;20039;-65
2023/04/03 01:04:58;;;;;;;0.00;0.00;;;3.70;74.50;;;;;;4970006;28;19992;-66
2023/04/03 01:07:28;;;;;;;0.10;0.10;;;3.70;74.50;;;;;;4969994;28;20424;-66
2023/04/03 01:09:59;;;;;;;0.10;0.10;;;3.60;74.60;;;;;;4968651;28;20050;-65
2023/04/03 01:12:31;;;;;;;0.00;0.00;;;3.70;74.70;;;;;;4969922;28;20039;-66
2023/04/03 01:15:22;;;;;;;0.00;0.00;;;3.70;74.80;;;;;;4969281;28;20042;-66
2023/04/03 01:17:51;;;;;;;0.10;0.10;;;3.70;74.70;;;;;;4968796;28;20070;-66
2023/04/03 01:20:25;;;;;;;0.08;0.08;;;3.70;74.50;;;;;;4969764;28;20039;-66
2023/04/03 01:22:59;;;;;;;0.03;0.03;;;3.70;74.30;;;;;;4969122;28;20622;-66
2023/04/03 01:25:26;;;;;;;0.00;0.00;;;3.70;74.00;;;;;;4952550;28;20042;-66
2023/04/03 01:27:51;;;;;;;0.00;0.00;;;3.70;73.90;;;;;;4969347;28;20054;-66
2023/04/03 01:30:20;;;;;;;0.00;0.00;;;3.70;73.60;;;;;;4968783;28;20432;-66
2023/04/03 01:32:46;;;;;;;0.00;0.00;;;3.70;73.80;;;;;;4970020;28;20051;-65
2023/04/03 01:35:12;;;;;;;0.00;0.00;;;3.70;73.90;;;;;;4970928;28;20388;-66
2023/04/03 01:37:37;;;;;;;0.00;0.00;;;3.70;74.10;;;;;;4973791;28;20082;-66
2023/04/03 01:40:05;;;;;;;0.00;0.00;;;3.70;74.10;;;;;;4974253;28;20078;-66
2023/04/03 01:42:31;;;;;;;0.00;0.00;;;3.60;74.20;;;;;;4973800;28;20055;-66
2023/04/03 01:44:56;;;;;;;0.00;0.00;;;3.60;74.20;;;;;;4973423;28;20464;-66
2023/04/03 01:47:22;;;;;;;0.00;0.00;;;3.60;74.30;;;;;;4973067;28;20546;-65
2023/04/03 01:49:48;;;;;;;0.00;0.00;;;3.50;74.30;;;;;;4973192;28;20075;-66
2023/04/03 01:52:14;;;;;;;0.00;0.00;;;3.50;74.30;;;;;;4973350;28;20414;-66
2023/04/03 01:54:39;;;;;;;0.00;0.00;;;3.50;74.40;;;;;;4957650;28;20042;-66
2023/04/03 01:57:05;;;;;;;0.00;0.00;;;3.50;74.40;;;;;;4973233;28;20078;-66
2023/04/03 01:59:31;;;;;;;0.00;0.00;;;3.40;74.50;;;;;;4966495;28;20054;-66
2023/04/03 02:01:56;;;;;;;0.00;0.00;;;3.40;74.60;;;;;;4972977;28;20050;-66
2023/04/03 02:04:22;;;;;;;0.00;0.00;;;3.40;74.60;;;;;;4959914;28;20074;-65
2023/04/03 02:06:48;;;;;;;0.00;0.00;;;3.40;74.70;;;;;;4973033;28;20038;-65
2023/04/03 02:09:14;;;;;;;0.00;0.00;;;3.40;74.70;;;;;;4972870;28;20047;-66
2023/04/03 02:11:39;;;;;;;0.00;0.00;;;3.40;74.80;;;;;;4973232;28;20045;-66
2023/04/03 02:14:05;;;;;;;0.00;0.00;;;3.30;74.80;;;;;;4972673;28;20053;-65
2023/04/03 02:16:30;;;;;;;0.00;0.00;;;3.30;74.80;;;;;;4966061;28;20047;-66
2023/04/03 02:18:56;;;;;;;0.00;0.00;;;3.30;75.00;;;;;;4973005;28;20047;-65
2023/04/03 02:21:22;;;;;;;0.00;0.00;;;3.30;74.90;;;;;;4972636;28;20117;-65
2023/04/03 02:23:48;;;;;;;0.00;0.00;;;3.30;75.00;;;;;;4972887;28;20042;-66
2023/04/03 02:26:15;;;;;;;0.00;0.00;;;3.20;75.00;;;;;;4972728;28;20082;-65
2023/04/03 02:28:41;;;;;;;0.00;0.00;;;3.20;75.00;;;;;;4972650;28;20380;-66
2023/04/03 02:31:06;;;;;;;0.00;0.00;;;3.10;75.00;;;;;;4959695;28;20054;-65
2023/04/03 02:33:33;;;;;;;0.10;0.10;;;3.10;75.10;;;;;;4972246;28;20596;-65
2023/04/03 02:35:59;;;;;;;0.00;0.00;;;3.10;75.10;;;;;;4972359;28;20039;-66
2023/04/03 02:38:25;;;;;;;0.00;0.00;;;3.10;75.10;;;;;;4972467;28;20107;-65
2023/04/03 02:40:51;;;;;;;0.00;0.00;;;3.10;75.20;;;;;;4972691;28;20050;-67
2023/04/03 02:43:17;;;;;;;0.10;0.10;;;3.00;75.20;;;;;;4972610;28;20042;-66
2023/04/03 02:45:43;;;;;;;0.00;0.00;;;3.00;75.30;;;;;;4971839;28;20054;-66
2023/04/03 02:48:09;;;;;;;0.00;0.00;;;2.90;75.40;;;;;;4968886;28;20074;-66
2023/04/03 02:50:34;;;;;;;0.00;0.00;;;3.00;75.50;;;;;;4972228;28;20086;-66
2023/04/03 02:53:00;;;;;;;0.00;0.00;;;2.90;75.50;;;;;;4971923;28;20078;-66
2023/04/03 02:55:26;;;;;;;0.10;0.10;;;2.90;75.60;;;;;;4972554;28;20039;-66
2023/04/03 02:57:52;;;;;;;0.03;0.03;;;2.90;75.60;;;;;;4972500;28;20053;-66
2023/04/03 03:00:17;;;;;;;0.00;0.00;;;2.90;75.60;;;;;;4954991;28;20503;-65
2023/04/03 03:02:43;;;;;;;0.00;0.00;;;2.90;75.60;;;;;;4972728;28;20495;-66
2023/04/03 03:05:09;;;;;;;0.00;0.00;;;2.90;75.60;;;;;;4972001;28;20102;-66
2023/04/03 03:07:34;;;;;;;0.22;0.22;;;2.90;75.60;;;;;;4972145;28;20046;-66
2023/04/03 03:10:00;;;;;;;0.05;0.05;;;2.80;75.70;;;;;;4972303;28;20054;-66
2023/04/03 03:12:25;;;;;;;0.00;0.00;;;2.80;75.70;;;;;;4972095;28;20058;-66
2023/04/03 03:14:51;;;;;;;0.00;0.00;;;2.80;75.80;;;;;;4972309;28;20053;-66
2023/04/03 03:17:17;;;;;;;0.00;0.00;;;2.70;75.80;;;;;;4972523;28;20074;-66
2023/04/03 03:19:43;;;;;;;0.00;0.00;;;2.70;75.80;;;;;;4971904;28;20099;-66
2023/04/03 03:22:09;;;;;;;0.00;0.00;;;2.70;76.00;;;;;;4972311;28;20085;-66
2023/04/03 03:24:35;;;;;;;0.03;0.03;;;2.70;76.10;;;;;;4971409;28;20066;-66
2023/04/03 03:27:00;;;;;;;0.00;0.00;;;2.70;76.30;;;;;;4971960;28;20105;-65
2023/04/03 03:29:26;;;;;;;0.00;0.00;;;2.70;76.20;;;;;;4971528;28;20077;-66
2023/04/03 03:31:51;;;;;;;0.00;0.00;;;2.70;76.20;;;;;;4972013;28;20074;-65
2023/04/03 03:34:17;;;;;;;0.00;0.00;;;2.70;76.30;;;;;;4954623;28;20047;-66
2023/04/03 03:36:43;;;;;;;0.00;0.00;;;2.70;76.50;;;;;;4954359;28;20514;-65
2023/04/03 03:39:09;;;;;;;0.00;0.00;;;2.60;76.40;;;;;;4971686;28;20086;-66
2023/04/03 03:41:35;;;;;;;0.00;0.00;;;2.70;76.50;;;;;;4971440;28;20043;-66
2023/04/03 03:44:00;;;;;;;0.03;0.03;;;2.70;76.70;;;;;;4954389;28;20089;-66
2023/04/03 03:46:26;;;;;;;0.00;0.00;;;2.70;76.60;;;;;;4971861;28;20061;-66
2023/04/03 03:48:51;;;;;;;0.00;0.00;;;2.70;76.60;;;;;;4953441;28;20061;-66
2023/04/03 03:51:17;;;;;;;0.00;0.00;;;2.70;76.70;;;;;;4971579;28;20137;-66
2023/04/03 03:53:42;;;;;;;0.00;0.00;;;2.70;76.50;;;;;;4954324;28;20117;-66
2023/04/03 03:56:08;;;;;;;0.00;0.00;;;2.70;76.60;;;;;;4970725;28;20038;-66
2023/04/03 03:58:33;;;;;;;0.00;0.00;;;2.60;76.70;;;;;;4969886;28;20061;-66
2023/04/03 04:01:05;;;;;;;0.00;0.00;;;2.60;76.70;;;;;;4954028;28;20046;-66
2023/04/03 04:03:31;;;;;;;0.00;0.00;;;2.60;76.70;;;;;;4971328;28;20049;-66
2023/04/03 04:05:56;;;;;;;0.00;0.00;;;2.70;76.90;;;;;;4971544;28;20043;-66
2023/04/03 04:08:23;;;;;;;0.00;0.00;;;2.60;77.00;;;;;;4971163;28;20042;-66
2023/04/03 04:10:48;;;;;;;0.00;0.00;;;2.60;76.90;;;;;;4970836;28;20097;-65
2023/04/03 04:13:14;;;;;;;0.00;0.00;;;2.60;76.90;;;;;;4971147;28;20051;-66
2023/04/03 04:15:40;;;;;;;0.00;0.00;;;2.60;76.90;;;;;;4971452;28;20508;-66
2023/04/03 04:18:05;;;;;;;0.00;0.00;;;2.60;77.00;;;;;;4970622;28;20039;-65
2023/04/03 04:20:31;;;;;;;0.00;0.00;;;2.60;77.00;;;;;;4970695;28;20614;-66
2023/04/03 04:22:56;;;;;;;0.10;0.10;;;2.60;77.00;;;;;;4971458;28;20084;-66
2023/04/03 04:25:22;;;;;;;0.00;0.00;;;2.50;77.10;;;;;;4971042;28;20042;-66
2023/04/03 04:27:47;;;;;;;0.00;0.00;;;2.50;77.10;;;;;;4970465;28;20145;-66
2023/04/03 04:30:13;;;;;;;0.00;0.00;;;2.50;77.20;;;;;;4970571;28;20039;-66
2023/04/03 04:32:39;;;;;;;0.00;0.00;;;2.50;77.20;;;;;;4970319;28;20053;-66
2023/04/03 04:35:05;;;;;;;0.00;0.00;;;2.50;77.20;;;;;;4970982;28;20396;-66
2023/04/03 04:37:31;;;;;;;0.00;0.00;;;2.50;77.30;;;;;;4970399;28;20042;-66
2023/04/03 04:39:56;;;;;;;0.00;0.00;;;2.50;77.40;;;;;;4952650;28;20054;-66
2023/04/03 04:42:22;;;;;;;0.10;0.10;;;2.50;77.30;;;;;;4970621;28;20046;-66
2023/04/03 04:44:48;;;;;;;0.28;0.28;;;2.50;77.40;;;;;;4970086;28;20043;-66
2023/04/03 04:47:13;;;;;;;0.00;0.00;;;2.40;77.40;;;;;;4970268;28;20053;-66
2023/04/03 04:49:39;;;;;;;0.00;0.00;;;2.40;77.40;;;;;;4953665;28;20121;-66
2023/04/03 04:52:04;;;;;;;0.00;0.00;;;2.40;77.40;;;;;;4970351;28;20047;-66
2023/04/03 04:54:30;;;;;;;0.00;0.00;;;2.40;77.40;;;;;;4970508;28;20054;-66
2023/04/03 04:56:56;;;;;;;0.00;0.00;;;2.30;77.60;;;;;;4970215;28;20110;-67
2023/04/03 04:59:21;;;;;;;0.00;0.00;;;2.40;77.90;;;;;;4966887;28;20031;-66
2023/04/03 05:01:47;;;;;;;0.00;0.00;;;2.40;78.10;;;;;;4968081;28;20034;-66
2023/04/03 05:04:13;;;;;;;0.00;0.00;;;2.30;78.10;;;;;;4968799;28;20133;-66
2023/04/03 05:06:39;;;;;;;0.00;0.00;;;2.40;78.20;;;;;;4968987;28;20062;-66
2023/04/03 05:09:05;;;;;;;0.00;0.00;;;2.40;78.20;;;;;;4970559;28;20051;-66
2023/04/03 05:11:30;;;;;;;0.00;0.00;;;2.30;78.20;;;;;;4967549;28;20047;-67
2023/04/03 05:13:56;;;;;;;0.00;0.00;;;2.40;78.30;;;;;;4969303;28;20058;-66
2023/04/03 05:16:21;;;;;;;0.00;0.00;;;2.40;78.30;;;;;;4966165;28;20038;-66
2023/04/03 05:18:47;;;;;;;0.00;0.00;;;2.40;78.30;;;;;;4967895;28;20094;-67
2023/04/03 05:21:12;;;;;;;0.00;0.00;;;2.30;78.30;;;;;;4968176;28;20053;-67
2023/04/03 05:23:38;;;;;;;1.25;0.63;;;2.30;78.30;;;;;;4966463;28;20053;-66
2023/04/03 05:26:04;;;;;;;0.00;0.00;;;2.30;78.30;;;;;;4966077;28;20053;-67
2023/04/03 05:28:30;;;;;;;0.00;0.00;;;2.30;78.50;;;;;;4967202;28;20038;-66
2023/04/03 05:30:58;;;;;;;0.00;0.00;;;2.20;78.40;;;;;;4967079;28;20081;-67
2023/04/03 05:33:25;;;;;;;0.10;0.10;;;2.20;78.40;;;;;;4967576;28;20039;-66
2023/04/03 05:35:51;;;;;;;0.10;0.10;;;2.20;78.40;;;;;;4966669;28;20065;-69
2023/04/03 05:38:17;;;;;;;0.00;0.00;;;2.20;78.60;;;;;;4967624;28;20539;-68
2023/04/03 05:40:43;;;;;;;0.00;0.00;;;2.50;80.80;;;;;;4967105;28;20043;-68
2023/04/03 05:43:09;;;;;;;0.00;0.00;;;2.70;81.20;;;;;;4967525;28;20867;-68
2023/04/03 05:45:35;;;;;;;0.00;0.00;;;2.80;81.40;;;;;;4968047;28;20054;-68
2023/04/03 05:48:00;;;;;;;0.00;0.00;;;2.90;81.30;;;;;;4965899;28;20058;-65
2023/04/03 05:50:26;;;;;;;0.00;0.00;;;2.90;80.30;;;;;;4965584;28;20574;-65
2023/04/03 05:52:55;;;;;;;0.00;0.00;;;2.80;79.60;;;;;;4968596;28;20054;-65
2023/04/03 05:55:20;;;;;;;0.00;0.00;;;2.80;79.20;;;;;;4978837;28;20326;-65
2023/04/03 05:57:46;;;;;;;0.00;0.00;;;2.70;79.00;;;;;;4974820;28;20047;-65
2023/04/03 06:00:15;;;;;;;0.00;0.00;;;2.60;78.90;;;;;;4959040;28;20046;-65
2023/04/03 06:02:41;;;;;;;0.00;0.00;;;2.60;78.90;;;;;;4968648;28;20078;-65
2023/04/03 06:05:08;;;;;;;0.00;0.00;;;2.60;78.90;;;;;;4970588;28;20109;-65
2023/04/03 06:07:33;;;;;;;0.10;0.10;;;2.50;78.90;;;;;;4972075;28;20192;-66
2023/04/03 06:10:00;;;;;;;0.00;0.00;;;2.50;78.80;;;;;;4969342;28;20047;-65
2023/04/03 06:12:26;;;;;;;0.00;0.00;;;2.50;78.70;;;;;;4968990;28;20043;-67
2023/04/03 06:14:52;;;;;;;0.00;0.00;;;2.50;78.80;;;;;;4967411;28;20057;-66
2023/04/03 06:17:18;;;;;;;0.10;0.10;;;2.50;78.70;;;;;;4968751;28;20043;-69
2023/04/03 06:19:44;;;;;;;0.00;0.00;;;2.60;78.70;;;;;;4966786;28;20042;-67
2023/04/03 06:22:11;;;;;;;0.00;0.00;;;2.60;78.80;;;;;;4971218;28;20133;-68
2023/04/03 06:24:37;;;;;;;0.00;0.00;;;2.60;78.80;;;;;;4972084;28;20046;-67
2023/04/03 06:27:03;;;;;;;0.57;0.57;;;2.60;78.80;;;;;;4972401;28;20102;-67
2023/04/03 06:29:29;;;;;;;0.00;0.00;;;2.60;78.90;;;;;;4961045;28;20082;-65
2023/04/03 06:31:55;;;;;;;0.00;0.00;;;2.70;79.00;;;;;;4972479;28;20043;-66
2023/04/03 06:34:21;;;;;;;0.00;0.00;;;2.70;79.00;;;;;;4973377;28;20121;-66
2023/04/03 06:36:46;;;;;;;0.00;0.00;;;2.70;78.80;;;;;;4971057;28;20045;-65
2023/04/03 06:39:18;;;;;;;0.00;0.00;;;2.80;79.00;;;;;;4971538;28;20051;-65
2023/04/03 06:41:43;;;;;;;0.00;0.00;;;2.90;78.90;;;;;;4968569;28;20128;-65
2023/04/03 06:44:10;;;;;;;0.00;0.00;;;2.90;78.70;;;;;;4952762;28;20459;-66
2023/04/03 06:46:38;;;;;;;0.00;0.00;;;2.90;78.70;;;;;;4928204;28;20086;-66
2023/04/03 06:49:04;;;;;;;0.00;0.00;;;3.00;78.60;;;;;;4927247;28;20042;-66
2023/04/03 06:51:30;;;;;;;0.00;0.00;;;3.10;78.60;;;;;;4962325;28;20047;-67
2023/04/03 06:53:59;;;;;;;0.00;0.00;;;3.10;78.50;;;;;;4962130;28;20189;-66
2023/04/03 06:56:26;;;;;;;0.00;0.00;;;3.20;78.40;;;;;;4956676;28;20082;-65
2023/04/03 06:58:57;;;;;;;0.00;0.00;;;3.30;78.40;;;;;;4962414;28;20046;-65
2023/04/03 07:01:24;;;;;;;0.00;0.00;;;3.30;78.10;;;;;;4949688;28;20113;-65
2023/04/03 07:03:50;;;;;;;0.00;0.00;;;3.40;78.00;;;;;;4963522;28;20165;-65
2023/04/03 07:06:18;;;;;;;0.00;0.00;;;3.40;78.00;;;;;;4963442;28;20031;-65
2023/04/03 07:08:44;;;;;;;0.00;0.00;;;3.50;77.90;;;;;;4960560;28;20639;-65
2023/04/03 07:11:11;;;;;;;0.00;0.00;;;3.60;77.70;;;;;;4959544;28;20481;-65
2023/04/03 07:13:37;;;;;;;0.00;0.00;;;3.60;77.50;;;;;;4962152;28;20077;-65
2023/04/03 07:16:04;;;;;;;0.00;0.00;;;3.60;77.20;;;;;;4962708;28;20621;-65
2023/04/03 07:18:31;;;;;;;0.00;0.00;;;3.60;77.00;;;;;;4963175;28;20130;-66
2023/04/03 07:20:57;;;;;;;0.00;0.00;;;3.60;77.00;;;;;;4959292;28;20150;-65
2023/04/03 07:23:22;;;;;;;0.00;0.00;;;3.90;77.50;;;;;;4953514;28;20043;-65
2023/04/03 07:25:49;;;;;;;0.10;0.10;;;3.90;76.90;;;;;;4954102;28;20035;-65
2023/04/03 07:28:17;;;;;;;0.00;0.00;;;3.90;76.60;;;;;;4970177;28;20046;-65
2023/04/03 07:30:47;;;;;;;0.00;0.00;;;3.90;76.30;;;;;;4970414;28;20101;-65
2023/04/03 07:33:15;;;;;;;0.00;0.00;;;4.00;76.00;;;;;;4966901;28;20045;-65
2023/04/03 07:35:41;;;;;;;0.00;0.00;;;4.00;75.70;;;;;;4955501;28;20093;-65
2023/04/03 07:38:07;;;;;;;0.00;0.00;;;4.00;75.50;;;;;;4954023;28;20047;-65
2023/04/03 07:40:33;;;;;;;0.00;0.00;;;4.00;75.60;;;;;;4970900;28;20050;-65
2023/04/03 07:42:59;;;;;;;0.00;0.00;;;4.10;75.80;;;;;;4970872;28;20049;-65
2023/04/03 07:45:25;;;;;;;0.00;0.00;;;4.20;75.90;;;;;;4969443;28;20039;-65
2023/04/03 07:47:51;;;;;;;0.00;0.00;;;4.20;75.60;;;;;;4964001;28;20042;-65
2023/04/03 07:50:17;;;;;;;0.00;0.00;;;4.30;75.40;;;;;;4968843;28;20104;-65
2023/04/03 07:52:44;;;;;;;0.00;0.00;;;4.30;75.10;;;;;;4971462;28;20054;-65
2023/04/03 07:55:10;;;;;;;0.00;0.00;;;4.40;74.60;;;;;;4954004;28;20046;-65
2023/04/03 07:57:36;;;;;;;0.05;0.05;;;4.40;74.50;;;;;;4971169;28;20050;-66
2023/04/03 08:00:04;;;;;;;0.00;0.00;;;4.50;74.20;;;;;;4962192;28;20050;-65
2023/04/03 08:02:31;;;;;;;0.10;0.10;;;4.60;74.00;;;;;;4969943;28;20070;-65
2023/04/03 08:04:58;;;;;;;0.00;0.00;;;4.60;73.50;;;;;;4971012;28;20047;-65
2023/04/03 08:07:23;;;;;;;0.00;0.00;;;4.70;73.50;;;;;;4970860;28;20121;-65
2023/04/03 08:09:49;;;;;;;0.00;0.00;;;4.70;73.70;;;;;;4968895;28;20121;-65
2023/04/03 08:12:15;;;;;;;0.00;0.00;;;4.80;73.70;;;;;;4952771;28;20401;-66
2023/04/03 08:14:40;;;;;;;0.00;0.00;;;4.90;73.10;;;;;;4969242;28;20311;-64
2023/04/03 08:17:09;;;;;;;0.00;0.00;;;5.00;73.10;;;;;;4970110;28;20088;-65
2023/04/03 08:19:35;;;;;;;0.00;0.00;;;5.00;72.70;;;;;;4970070;28;20459;-65
2023/04/03 08:22:02;;;;;;;0.00;0.00;;;5.10;73.10;;;;;;4972650;28;20038;-65
2023/04/03 08:24:28;;;;;;;0.00;0.00;;;5.20;72.70;;;;;;4980004;28;20039;-65
2023/04/03 08:26:55;;;;;;;0.00;0.00;;;5.30;72.50;;;;;;4958073;28;20155;-65
2023/04/03 08:29:21;;;;;;;0.00;0.00;;;5.40;72.10;;;;;;4970365;28;20053;-65
2023/04/03 08:31:47;;;;;;;0.00;0.00;;;5.40;72.10;;;;;;4950981;28;20051;-66
2023/04/03 08:34:14;;;;;;;0.00;0.00;;;5.40;69.70;;;;;;4973494;28;20216;-66
2023/04/03 08:36:40;;;;;;;0.00;0.00;;;5.50;70.60;;;;;;4971857;28;20384;-66
2023/04/03 08:39:06;;;;;;;0.00;0.00;;;5.60;69.80;;;;;;4952638;28;20057;-65
2023/04/03 08:41:33;;;;;;;0.00;0.00;;;5.60;70.20;;;;;;4969595;28;20455;-66
2023/04/03 08:44:22;;;;;;;0.00;0.00;;;5.70;70.00;;;;;;4947072;28;20073;-64
2023/04/03 08:47:14;;;;;;;0.00;0.00;;;5.80;69.70;;;;;;4969342;28;20073;-65
2023/04/03 08:49:51;;;;;;;0.00;0.00;;;5.80;68.50;;;;;;4967989;28;20078;-65
2023/04/03 08:52:39;;;;;;;0.00;0.00;;;5.90;69.00;;;;;;4952302;28;20507;-65
2023/04/03 08:55:16;;;;;;;0.00;0.00;;;6.00;68.10;;;;;;4965755;28;20051;-66
2023/04/03 08:57:45;;;;;;;0.00;0.00;;;6.10;69.10;;;;;;4967304;28;20042;-65
2023/04/03 09:00:13;;;;;;;0.00;0.00;;;6.10;68.80;;;;;;4950427;28;20104;-65
2023/04/03 09:02:51;;;;;;;0.00;0.00;;;6.20;68.10;;;;;;4965669;28;20043;-65
2023/04/03 09:05:38;;;;;;;0.00;0.00;;;6.30;67.80;;;;;;4968819;28;20126;-65
2023/04/03 09:08:14;;;;;;;0.00;0.00;;;6.40;68.70;;;;;;4969022;28;20050;-65
2023/04/03 09:10:41;;;;;;;0.08;0.08;;;6.40;68.40;;;;;;4953556;28;20035;-66
2023/04/03 09:13:38;;;;;;;0.00;0.00;;;6.50;68.00;;;;;;4968171;28;20112;-65
2023/04/03 09:16:25;;;;;;;0.00;0.00;;;6.60;65.70;;;;;;4951097;28;20146;-65
2023/04/03 09:19:07;;;;;;;0.00;0.00;;;6.60;66.50;;;;;;4969852;28;20054;-65
2023/04/03 09:21:42;;;;;;;0.00;0.00;;;6.70;64.70;;;;;;4969775;28;20074;-66
2023/04/03 09:24:10;;;;;;;0.00;0.00;;;6.70;63.60;;;;;;4969380;28;20054;-65
2023/04/03 09:26:44;;;;;;;0.00;0.00;;;6.80;63.60;;;;;;4970028;28;20423;-65
2023/04/03 09:29:17;;;;;;;0.00;0.00;;;6.80;64.00;;;;;;4969101;28;20129;-65
2023/04/03 09:31:45;;;;;;;0.10;0.10;;;6.90;64.80;;;;;;4968641;28;20050;-65
2023/04/03 09:34:29;;;;;;;0.00;0.00;;;7.00;65.60;;;;;;4961711;28;20053;-67
2023/04/03 09:36:57;;;;;;;0.00;0.00;;;7.10;64.80;;;;;;4964685;28;20082;-66
2023/04/03 09:39:28;;;;;;;0.00;0.00;;;7.30;65.50;;;;;;4969686;28;20043;-66
2023/04/03 09:42:15;;;;;;;0.00;0.00;;;7.30;63.30;;;;;;4970041;28;20066;-66
2023/04/03 09:44:41;;;;;;;0.45;0.45;;;7.30;63.90;;;;;;4969121;28;20043;-66
2023/04/03 09:47:25;;;;;;;0.00;0.00;;;7.40;63.40;;;;;;4968491;28;20031;-65
2023/04/03 09:49:51;;;;;;;0.00;0.00;;;7.40;60.20;;;;;;4968147;28;20059;-65
2023/04/03 09:52:25;;;;;;;0.00;0.00;;;7.40;61.90;;;;;;4945831;28;20057;-65
2023/04/03 09:54:50;;;;;;;0.00;0.00;;;7.50;62.50;;;;;;4968820;28;20047;-65
2023/04/03 09:57:17;;;;;;;0.00;0.00;;;7.60;60.90;;;;;;4972499;28;20043;-65
2023/04/03 09:59:46;;;;;;;0.00;0.00;;;7.60;61.10;;;;;;4972740;28;20058;-66
2023/04/03 10:02:30;;;;;;;0.00;0.00;;;7.70;61.00;;;;;;4973810;28;20396;-65
2023/04/03 10:04:57;;;;;;;0.00;0.00;;;7.70;60.60;;;;;;4973152;28;20050;-66
2023/04/03 10:07:36;;;;;;;0.00;0.00;;;7.80;61.20;;;;;;4973169;28;20404;-66
2023/04/03 10:10:14;;;;;;;0.00;0.00;;;7.80;59.40;;;;;;4956648;28;20101;-66
2023/04/03 10:12:40;;;;;;;0.00;0.00;;;7.90;58.30;;;;;;4967258;28;20077;-65
2023/04/03 10:15:12;;;;;;;0.00;0.00;;;7.90;57.80;;;;;;4972113;28;20062;-66
2023/04/03 10:17:50;;;;;;;0.00;0.00;;;8.00;58.40;;;;;;4971783;28;20085;-66
2023/04/03 10:20:43;;;;;;;0.10;0.10;;;8.10;58.50;;;;;;4971696;28;20039;-65
2023/04/03 10:23:21;;;;;;;0.00;0.00;;;8.10;58.40;;;;;;4971220;28;20130;-66
2023/04/03 10:25:54;;;;;;;0.10;0.10;;;8.20;58.90;;;;;;4971053;28;20054;-65
2023/04/03 10:28:36;;;;;;;0.08;0.08;;;8.20;58.10;;;;;;4971558;28;20443;-65
2023/04/03 10:31:17;;;;;;;0.00;0.00;;;8.30;55.70;;;;;;4970660;28;20047;-66
2023/04/03 10:34:20;;;;;;;0.00;0.00;;;8.30;57.30;;;;;;4968002;28;20050;-66
2023/04/03 10:37:21;;;;;;;0.00;0.00;;;8.40;58.50;;;;;;4954534;28;20329;-66
2023/04/03 10:40:05;;;;;;;0.00;0.00;;;8.50;58.20;;;;;;4940248;28;20067;-65
2023/04/03 10:42:41;;;;;;;2.10;1.02;;;8.60;57.20;;;;;;4971105;28;20623;-66
2023/04/03 10:45:18;;;;;;;0.00;0.00;;;8.60;56.70;;;;;;4969875;28;20381;-65
2023/04/03 10:47:58;;;;;;;0.00;0.00;;;8.60;56.60;;;;;;4970436;28;20049;-65
2023/04/03 10:50:43;;;;;;;0.00;0.00;;;8.70;55.90;;;;;;4972392;28;20114;-65
2023/04/03 10:53:33;;;;;;;0.00;0.00;;;8.80;55.90;;;;;;4971633;28;20554;-65
2023/04/03 10:56:11;;;;;;;0.00;0.00;;;8.90;52.70;;;;;;4970997;28;20074;-65
2023/04/03 10:58:43;;;;;;;0.30;0.30;;;8.80;54.60;;;;;;4970999;28;20071;-65
2023/04/03 11:01:14;;;;;;;0.00;0.00;;;8.90;55.20;;;;;;4971226;28;20053;-66
2023/04/03 11:03:44;;;;;;;0.10;0.10;;;8.90;53.70;;;;;;4971455;28;20540;-65
2023/04/03 11:06:12;;;;;;;0.00;0.00;;;8.90;50.80;;;;;;4940724;28;20047;-64
2023/04/03 11:08:56;;;;;;;0.00;0.00;;;9.00;54.10;;;;;;4970966;28;20513;-64
2023/04/03 11:11:27;;;;;;;0.00;0.00;;;9.10;54.20;;;;;;4969441;28;20137;-65
2023/04/03 11:13:57;;;;;;;0.00;0.00;;;9.00;50.50;;;;;;4970555;28;20042;-65
2023/04/03 11:16:26;;;;;;;0.00;0.00;;;9.10;53.70;;;;;;4971777;28;20078;-65
2023/04/03 11:18:59;;;;;;;0.00;0.00;;;9.10;54.00;;;;;;4971066;28;20624;-65
2023/04/03 11:21:35;;;;;;;0.00;0.00;;;9.20;50.50;;;;;;4970778;28;20047;-65
2023/04/03 11:24:04;;;;;;;0.32;0.32;;;9.30;49.40;;;;;;4970845;28;20125;-65
2023/04/03 11:26:38;;;;;;;0.00;0.00;;;9.30;52.40;;;;;;4971447;28;20043;-66
2023/04/03 11:29:12;;;;;;;0.08;0.08;;;9.30;49.80;;;;;;4961096;28;20106;-65
2023/04/03 11:32:06;;;;;;;0.00;0.00;;;9.30;49.90;;;;;;4954071;28;20097;-65
2023/04/03 11:34:40;;;;;;;0.00;0.00;;;9.40;52.30;;;;;;4951750;28;20047;-65
2023/04/03 11:37:24;;;;;;;0.00;0.00;;;9.50;52.80;;;;;;4970553;28;20093;-65
2023/04/03 11:39:58;;;;;;;0.00;0.00;;;9.50;52.80;;;;;;4970970;28;20043;-65
2023/04/03 11:42:36;;;;;;;0.00;0.00;;;9.50;50.70;;;;;;4970838;28;20534;-65
2023/04/03 11:45:24;;;;;;;0.00;0.00;;;9.60;50.40;;;;;;4971038;28;20038;-65
2023/04/03 11:47:58;;;;;;;0.00;0.00;;;9.60;47.20;;;;;;4968521;28;20503;-65
2023/04/03 11:50:50;;;;;;;0.00;0.00;;;9.60;49.30;;;;;;4970480;28;20050;-65
2023/04/03 11:53:16;;;;;;;0.00;0.00;;;9.60;49.10;;;;;;4962613;28;20059;-66
2023/04/03 11:55:47;;;;;;;0.00;0.00;;;9.60;46.70;;;;;;4970743;28;20097;-66
2023/04/03 11:58:28;;;;;;;0.00;0.00;;;9.70;50.30;;;;;;4970436;28;20089;-66
2023/04/03 12:00:57;;;;;;;0.00;0.00;;;9.70;47.10;;;;;;4970359;28;20047;-66
2023/04/03 12:03:29;;;;;;;0.00;0.00;;;9.70;47.30;;;;;;4971086;28;20074;-65
2023/04/03 12:05:55;;;;;;;0.00;0.00;;;9.80;49.30;;;;;;4970381;28;20047;-65
2023/04/03 12:08:29;;;;;;;0.00;0.00;;;9.70;46.10;;;;;;4970421;28;20395;-66
2023/04/03 12:11:12;;;;;;;0.00;0.00;;;9.80;47.30;;;;;;4950011;29;20528;-65
2023/04/03 12:13:48;;;;;;;0.20;0.20;;;9.90;46.60;;;;;;4967611;28;20086;-66
2023/04/03 12:16:26;;;;;;;0.00;0.00;;;9.90;47.00;;;;;;4960719;28;20218;-66
2023/04/03 12:18:55;;;;;;;0.00;0.00;;;10.00;47.70;;;;;;4951653;28;20829;-66
2023/04/03 12:21:30;;;;;;;0.00;0.00;;;10.00;45.40;;;;;;4970381;28;20411;-66
2023/04/03 12:24:02;;;;;;;0.00;0.00;;;10.10;47.40;;;;;;4969412;28;20579;-66
2023/04/03 12:26:38;;;;;;;0.00;0.00;;;10.10;45.00;;;;;;4970560;28;20047;-66
2023/04/03 12:29:23;;;;;;;0.00;0.00;;;10.20;47.90;;;;;;4969473;28;20538;-66
2023/04/03 12:32:05;;;;;;;0.00;0.00;;;10.30;46.40;;;;;;4968054;28;20554;-67
2023/04/03 12:34:53;;;;;;;0.00;0.00;;;10.50;47.50;;;;;;4965559;28;20047;-67
2023/04/03 12:37:42;;;;;;;0.00;0.00;;;10.60;46.50;;;;;;4968590;28;20046;-67
2023/04/03 12:40:23;;;;;;;0.00;0.00;;;10.60;46.00;;;;;;4969053;28;20074;-67
2023/04/03 12:43:05;;;;;;;0.00;0.00;;;10.60;45.90;;;;;;4950362;28;20047;-67
2023/04/03 12:45:59;;;;;;;0.00;0.00;;;10.70;47.70;;;;;;4969539;28;20499;-67
2023/04/03 12:48:27;;;;;;;0.00;0.00;;;10.70;46.80;;;;;;4965783;28;20101;-66
2023/04/03 12:50:53;;;;;;;0.00;0.00;;;10.80;44.60;;;;;;4965963;28;20518;-67
2023/04/03 12:53:27;;;;;;;0.10;0.10;;;10.80;44.60;;;;;;4968549;28;20764;-65
2023/04/03 12:56:22;;;;;;;0.00;0.00;;;10.80;46.00;;;;;;4968702;28;20052;-65
2023/04/03 12:58:48;;;;;;;0.00;0.00;;;10.90;44.50;;;;;;4968839;28;20042;-65
2023/04/03 13:01:18;;;;;;;1.88;0.57;;;10.90;46.50;;;;;;4969093;28;20039;-65
2023/04/03 13:03:51;;;;;;;0.00;0.00;;;11.00;47.20;;;;;;4969062;28;20510;-65
2023/04/03 13:06:21;;;;;;;0.00;0.00;;;11.00;47.20;;;;;;4968742;28;20098;-65
2023/04/03 13:08:59;;;;;;;0.00;0.00;;;11.10;46.90;;;;;;4952162;28;20050;-66
2023/04/03 13:11:30;;;;;;;0.00;0.00;;;11.10;45.20;;;;;;4969372;28;20038;-67